Darstellungsparameter: Aktuell verwendete Einstellungen:
Skalierung der Graphiken ... ?
xyx+y,   Skalierungsfaktor:      Skalierung: Modus: x, Faktor: 1
Darstellungszeitraum ... ?
Vom - - bis: - -   Zeitraum: 30.03.2017 - 29.09.2017
Min/Max/Avg-Anzeige ... ?
Zeige MMA aktuell
Zeige MMA Monat
Zeige MMA alles
Zeige --A aktuell
Zeige --A Monat
Zeige --A alles
Keine MMA-Anzeige
MMA:
Average (ber die Originaldaten)
MMA-Basis: 23.02.2003 - 30.09.2020
Quicknavigation für Darstellung... ?
Tage:      1T, 2T, 3T, 5T -1T -2T -3T -5T +1T +2T +3T +5T
Wochen: 1W, 2W, 3W -1W -2W -3W +1W +2W +3W
Monate: 1M, 3M, 6M -1M -3M -6M +1M +3M +6M
Jahre:    1J, 3J, 5J, 10J -1J -3J -5J -10J +1J +3J +5J +10J
Nutze für die Darstellung ... ?
Originaldaten oder ...
Mittelwerte Minima Maxima auf...
Stundenbasis Tagesbasis Wochenbasis
Monatsbasis Jahresbasis      Datenbasis: Mittelwerte auf Tagesbasis
Darstellen als:
Statistik (Auto) Statistik J:M      Darstellung:
Zur Graphik,    zurück zur Übersicht aller Sensoren.
 
Tabellarische Datenbersicht: ?
 
Sensor: Nr:Datum:Temp:Abs-Feuchte:Windchill:Wind:
Aussen-T/F 1 30-03-2017 00:00:00 14.33507 C 8.91 g/m*3 14.34 C 2.8191 km/h
2 31-03-2017 00:00:00 13.69896 C 8.18 g/m*3 13.7 C 4.2309 km/h
3 01-04-2017 00:00:00 13.59792 C 8.47 g/m*3 13.6 C 4.24132 km/h
4 02-04-2017 00:00:00 11.71736 C 7.77 g/m*3 11.72 C 4.33021 km/h
5 03-04-2017 00:00:00 10.47257 C 7.37 g/m*3 10.47 C 3.92778 km/h
6 04-04-2017 00:00:00 9.3059 C 6.62 g/m*3 9.31 C 3.32882 km/h
7 05-04-2017 00:00:00 8.78889 C 6.61 g/m*3 7.96 C 6.45451 km/h
8 06-04-2017 00:00:00 8.65278 C 6.36 g/m*3 7.49 C 7.69097 km/h
9 07-04-2017 00:00:00 11.31566 C 7.19 g/m*3 11.32 C 7.25241 km/h
10 08-04-2017 00:00:00 14.59887 C 7.97 g/m*3 14.6 C 4.75763 km/h
11 09-04-2017 00:00:00 12.46215 C 7.97 g/m*3 12.46 C 2.05694 km/h
12 10-04-2017 00:00:00 10.93993 C 7.53 g/m*3 10.46 C 6.38264 km/h
13 11-04-2017 00:00:00 9.67188 C 6.33 g/m*3 9.67 C 4.85278 km/h
14 12-04-2017 00:00:00 11.34167 C 6.89 g/m*3 11.34 C 9.22778 km/h
15 13-04-2017 00:00:00 11.57153 C 7.09 g/m*3 11.57 C 6.57951 km/h
16 14-04-2017 00:00:00 9.77708 C 6.35 g/m*3 9.78 C 4.1691 km/h
17 15-04-2017 00:00:00 9.0875 C 7.24 g/m*3 8.29 C 6.4809 km/h
18 16-04-2017 00:00:00 7.52083 C 6.34 g/m*3 6.9 C 5.11667 km/h
19 17-04-2017 00:00:00 6.82257 C 6.5 g/m*3 6.03 C 5.34063 km/h
20 18-04-2017 00:00:00 5.52187 C 5.69 g/m*3 3.68 C 8.26424 km/h
21 19-04-2017 00:00:00 4.23646 C 4.56 g/m*3 2.91 C 5.81875 km/h
22 20-04-2017 00:00:00 4.68715 C 4.58 g/m*3 4.69 C 3.11042 km/h
23 21-04-2017 00:00:00 7.98299 C 5.84 g/m*3 7.98 C 2.52326 km/h
24 22-04-2017 00:00:00 9.60278 C 6.63 g/m*3 8.52 C 8.09826 km/h
25 23-04-2017 00:00:00 7.34722 C 5.44 g/m*3 6.41 C 6.025 km/h
Sensor: Nr:Datum:Temp:Abs-Feuchte:Windchill:Wind:
Aussen-T/F 26 24-04-2017 00:00:00 8.25764 C 5.77 g/m*3 8.26 C 4.07396 km/h
27 25-04-2017 00:00:00 8.07118 C 5.7 g/m*3 7.08 C 6.63993 km/h
28 26-04-2017 00:00:00 7.03611 C 5.28 g/m*3 7.04 C 3.30938 km/h
29 27-04-2017 00:00:00 7.07917 C 5.27 g/m*3 7.08 C 4.62569 km/h
30 28-04-2017 00:00:00 6.15972 C 5.83 g/m*3 6.16 C 2.76806 km/h
31 29-04-2017 00:00:00 8.79132 C 6.22 g/m*3 8.79 C 3.25972 km/h
32 30-04-2017 00:00:00 11.04896 C 6.1 g/m*3 11.05 C 5.44514 km/h
33 01-05-2017 00:00:00 10.13576 C 8.06 g/m*3 10.14 C 2.02361 km/h
34 02-05-2017 00:00:00 9.00868 C 8.42 g/m*3 9.01 C 0.85139 km/h
35 03-05-2017 00:00:00 10.15694 C 8.6 g/m*3 10.16 C 2.26319 km/h
36 04-05-2017 00:00:00 11.64722 C 9.35 g/m*3 11.65 C 2.42014 km/h
37 05-05-2017 00:00:00 11.58021 C 8.41 g/m*3 11.58 C 3.00451 km/h
38 06-05-2017 00:00:00 12.91042 C 8.8 g/m*3 12.91 C 3.59826 km/h
39 07-05-2017 00:00:00 13.1434 C 10.71 g/m*3 13.14 C 2.08194 km/h
40 08-05-2017 00:00:00 9.64306 C 7.98 g/m*3 8.78 C 7.14514 km/h
41 09-05-2017 00:00:00 9.69931 C 6.5 g/m*3 9.7 C 4.24028 km/h
42 10-05-2017 00:00:00 10.29583 C 6.76 g/m*3 10.3 C 2.94722 km/h
43 11-05-2017 00:00:00 14.23542 C 8.94 g/m*3 14.24 C 2.98646 km/h
44 12-05-2017 00:00:00 15.89479 C 11.59 g/m*3 15.89 C 2.9941 km/h
45 13-05-2017 00:00:00 17.24514 C 11.06 g/m*3 17.25 C 5.48472 km/h
46 14-05-2017 00:00:00 16.17049 C 11.14 g/m*3 16.17 C 3.77431 km/h
47 15-05-2017 00:00:00 15.43403 C 9.48 g/m*3 15.43 C 2.76597 km/h
48 16-05-2017 00:00:00 18.86458 C 9.89 g/m*3 18.86 C 2.60833 km/h
49 17-05-2017 00:00:00 20.20243 C 11.38 g/m*3 20.2 C 3.42951 km/h
50 18-05-2017 00:00:00 17.96042 C 12.96 g/m*3 17.96 C 1.62813 km/h
Sensor: Nr:Datum:Temp:Abs-Feuchte:Windchill:Wind:
Aussen-T/F 51 19-05-2017 00:00:00 13.45694 C 11.21 g/m*3 13.46 C 2.20451 km/h
52 20-05-2017 00:00:00 12.04375 C 8.98 g/m*3 12.04 C 4.63194 km/h
53 21-05-2017 00:00:00 13.43889 C 8.76 g/m*3 13.44 C 2.21771 km/h
54 22-05-2017 00:00:00 16.05417 C 10.09 g/m*3 16.05 C 2.60903 km/h
55 23-05-2017 00:00:00 18.46736 C 10.97 g/m*3 18.47 C 6.62188 km/h
56 24-05-2017 00:00:00 16.81771 C 10.56 g/m*3 16.82 C 3.53924 km/h
57 25-05-2017 00:00:00 18.59167 C 11.18 g/m*3 18.59 C 5.55972 km/h
58 26-05-2017 00:00:00 18.71042 C 11.35 g/m*3 18.71 C 5.42118 km/h
59 27-05-2017 00:00:00 21.17049 C 12.33 g/m*3 21.17 C 3.3066 km/h
60 28-05-2017 00:00:00 21.21493 C 14.54 g/m*3 21.21 C 1.70139 km/h
61 29-05-2017 00:00:00 23.54271 C 16.02 g/m*3 23.54 C 2.28472 km/h
62 30-05-2017 00:00:00 21.97847 C 14.53 g/m*3 21.98 C 3.78472 km/h
63 31-05-2017 00:00:00 18.61667 C 10.92 g/m*3 18.62 C 4.02222 km/h
64 01-06-2017 00:00:00 18.99792 C 11.66 g/m*3 19 C 1.80278 km/h
65 02-06-2017 00:00:00 19.04583 C 13.67 g/m*3 19.05 C 1.15868 km/h
66 03-06-2017 00:00:00 18.89236 C 15.13 g/m*3 18.89 C 0.87535 km/h
67 04-06-2017 00:00:00 16.44306 C 11.83 g/m*3 16.44 C 4.99271 km/h
68 05-06-2017 00:00:00 16.50278 C 10.81 g/m*3 16.5 C 3.43924 km/h
69 06-06-2017 00:00:00 15.18958 C 10.1 g/m*3 15.19 C 8.51181 km/h
70 07-06-2017 00:00:00 13.87778 C 9.04 g/m*3 13.88 C 11.74306 km/h
71 08-06-2017 00:00:00 18.08924 C 10.58 g/m*3 18.09 C 4.46076 km/h
72 09-06-2017 00:00:00 16.93299 C 11.76 g/m*3 16.93 C 4.00139 km/h
73 10-06-2017 00:00:00 17.78368 C 10.69 g/m*3 17.78 C 3.97083 km/h
74 11-06-2017 00:00:00 20.38229 C 12.71 g/m*3 20.38 C 1.90972 km/h
75 12-06-2017 00:00:00 20.21667 C 10.4 g/m*3 20.22 C 8.14965 km/h
Sensor: Nr:Datum:Temp:Abs-Feuchte:Windchill:Wind:
Aussen-T/F 76 13-06-2017 00:00:00 17.4059 C 10 g/m*3 17.41 C 4.20868 km/h
77 14-06-2017 00:00:00 18.66597 C 11.12 g/m*3 18.67 C 4.15208 km/h
78 15-06-2017 00:00:00 21.18299 C 13.02 g/m*3 21.18 C 2.95868 km/h
79 16-06-2017 00:00:00 18.97743 C 10.23 g/m*3 18.98 C 8.06076 km/h
80 17-06-2017 00:00:00 17.05035 C 11.09 g/m*3 17.05 C 3.42014 km/h
81 18-06-2017 00:00:00 21.54514 C 13.2 g/m*3 21.55 C 4.86389 km/h
82 19-06-2017 00:00:00 22.06667 C 12.53 g/m*3 22.07 C 3.4684 km/h
83 20-06-2017 00:00:00 23.55069 C 13.27 g/m*3 23.55 C 3.48715 km/h
84 21-06-2017 00:00:00 25.2191 C 14.48 g/m*3 25.22 C 3.80035 km/h
85 22-06-2017 00:00:00 23.325 C 16.3 g/m*3 23.33 C 3.01181 km/h
86 23-06-2017 00:00:00 22.47014 C 13.64 g/m*3 22.47 C 5.95729 km/h
87 24-06-2017 00:00:00 20.09028 C 11.27 g/m*3 20.09 C 7.27708 km/h
88 25-06-2017 00:00:00 20.12639 C 12.2 g/m*3 20.13 C 6.64236 km/h
89 26-06-2017 00:00:00 21.1184 C 12.39 g/m*3 21.12 C 5.93507 km/h
90 27-06-2017 00:00:00 18.80104 C 13.74 g/m*3 18.8 C 2.39063 km/h
91 28-06-2017 00:00:00 19.80208 C 15.52 g/m*3 19.8 C 2.68854 km/h
92 29-06-2017 00:00:00 17.97535 C 13.23 g/m*3 17.98 C 4.00035 km/h
93 30-06-2017 00:00:00 17.41624 C 11.48 g/m*3 17.42 C 7.40111 km/h
94 01-07-2017 00:00:00 16.45451 C 12.55 g/m*3 16.45 C 5.17604 km/h
95 02-07-2017 00:00:00 16.87188 C 12.67 g/m*3 16.87 C 4.40313 km/h
96 03-07-2017 00:00:00 17.94201 C 11.16 g/m*3 17.94 C 5.63924 km/h
97 04-07-2017 00:00:00 19.98993 C 11.91 g/m*3 19.99 C 3.58125 km/h
98 05-07-2017 00:00:00 21.5875 C 13.09 g/m*3 21.59 C 3.70139 km/h
99 06-07-2017 00:00:00 21.41701 C 14.36 g/m*3 21.42 C 3.34063 km/h
100 07-07-2017 00:00:00 23.46076 C 15.57 g/m*3 23.46 C 5.92986 km/h
Sensor: Nr:Datum:Temp:Abs-Feuchte:Windchill:Wind:
Aussen-T/F 101 08-07-2017 00:00:00 22.5559 C 14.13 g/m*3 22.56 C 3.05868 km/h
102 09-07-2017 00:00:00 22.69271 C 14.97 g/m*3 22.69 C 3.67882 km/h
103 10-07-2017 00:00:00 19.75243 C 16.01 g/m*3 19.75 C 0.84063 km/h
104 11-07-2017 00:00:00 19.33264 C 13.61 g/m*3 19.33 C 5.26319 km/h
105 12-07-2017 00:00:00 17.22951 C 13.12 g/m*3 17.23 C 7.25833 km/h
106 13-07-2017 00:00:00 15.53958 C 10.03 g/m*3 15.54 C 3.51319 km/h
107 14-07-2017 00:00:00 16.34653 C 10.78 g/m*3 16.35 C 3.36563 km/h
108 15-07-2017 00:00:00 16.46389 C 10.44 g/m*3 16.46 C 3.6184 km/h
109 16-07-2017 00:00:00 19.03924 C 13.25 g/m*3 19.04 C 3.24653 km/h
110 17-07-2017 00:00:00 20.61007 C 14.55 g/m*3 20.61 C 2.96979 km/h
111 18-07-2017 00:00:00 21.7625 C 14.45 g/m*3 21.76 C 3.56875 km/h
112 19-07-2017 00:00:00 23.46806 C 15.48 g/m*3 23.47 C 3.69097 km/h
113 20-07-2017 00:00:00 21.83889 C 15.3 g/m*3 21.84 C 5.35903 km/h
114 21-07-2017 00:00:00 20.14583 C 12.5 g/m*3 20.15 C 3.22951 km/h
115 22-07-2017 00:00:00 21.77813 C 15.77 g/m*3 21.78 C 2.44236 km/h
116 23-07-2017 00:00:00 18.27639 C 12.29 g/m*3 18.28 C 5.68299 km/h
117 24-07-2017 00:00:00 14.9816 C 11.7 g/m*3 14.98 C 1.8816 km/h
118 25-07-2017 00:00:00 14.46979 C 11.94 g/m*3 14.47 C 3.57743 km/h
119 26-07-2017 00:00:00 17.50729 C 12.83 g/m*3 17.51 C 6.14132 km/h
120 27-07-2017 00:00:00 18.9184 C 14.54 g/m*3 18.92 C 3.37674 km/h
121 28-07-2017 00:00:00 17.14236 C 12.2 g/m*3 17.14 C 4.89167 km/h
122 29-07-2017 00:00:00 20.44271 C 14.37 g/m*3 20.44 C 3.35764 km/h
123 30-07-2017 00:00:00 22.74236 C 14.92 g/m*3 22.74 C 7.14931 km/h
124 31-07-2017 00:00:00 20.73542 C 14.05 g/m*3 20.74 C 3.22917 km/h
125 01-08-2017 00:00:00 19.90799 C 16.27 g/m*3 19.91 C 1.10174 km/h
Sensor: Nr:Datum:Temp:Abs-Feuchte:Windchill:Wind:
Aussen-T/F 126 02-08-2017 00:00:00 21.09306 C 15.93 g/m*3 21.09 C 2.4434 km/h
127 03-08-2017 00:00:00 21.32153 C 15.57 g/m*3 21.32 C 4.87639 km/h
128 04-08-2017 00:00:00 20.4309 C 13.51 g/m*3 20.43 C 5.63403 km/h
129 05-08-2017 00:00:00 18.99826 C 12.99 g/m*3 19 C 5.44931 km/h
130 06-08-2017 00:00:00 17.06181 C 10.81 g/m*3 17.06 C 2.57917 km/h
131 07-08-2017 00:00:00 17.21319 C 10.92 g/m*3 17.21 C 1.88125 km/h
132 08-08-2017 00:00:00 17.34063 C 12.81 g/m*3 17.34 C 1.82118 km/h
133 09-08-2017 00:00:00 17.64167 C 11.72 g/m*3 17.64 C 2.90521 km/h
134 10-08-2017 00:00:00 15.45139 C 12.48 g/m*3 15.45 C 0.27292 km/h
135 11-08-2017 00:00:00 14.99271 C 12.23 g/m*3 14.99 C 2.51771 km/h
136 12-08-2017 00:00:00 15.39965 C 12.41 g/m*3 15.4 C 7.06667 km/h
137 13-08-2017 00:00:00 18.25694 C 13.14 g/m*3 18.26 C 3.16806 km/h
138 14-08-2017 00:00:00 18.07396 C 13.46 g/m*3 18.07 C 1.50764 km/h
139 15-08-2017 00:00:00 18.78299 C 15.05 g/m*3 18.78 C 0.67396 km/h
140 16-08-2017 00:00:00 19.80486 C 14.91 g/m*3 19.8 C 0.68403 km/h
141 17-08-2017 00:00:00 19.18438 C 14.38 g/m*3 19.18 C 2.50069 km/h
142 18-08-2017 00:00:00 18.28819 C 14.71 g/m*3 18.29 C 1.55625 km/h
143 19-08-2017 00:00:00 14.62049 C 11.35 g/m*3 14.62 C 4.0434 km/h
144 20-08-2017 00:00:00 14.85243 C 10.98 g/m*3 14.85 C 3.08681 km/h
145 21-08-2017 00:00:00 15.85833 C 11.1 g/m*3 15.86 C 1.35313 km/h
146 22-08-2017 00:00:00 15.7316 C 11.38 g/m*3 15.73 C 0 km/h
147 23-08-2017 00:00:00 17.82812 C 12.81 g/m*3 17.83 C 0.16215 km/h
148 24-08-2017 00:00:00 19.30625 C 13.63 g/m*3 19.31 C 1.4684 km/h
149 25-08-2017 00:00:00 18.12049 C 13.83 g/m*3 18.12 C 0.43646 km/h
150 26-08-2017 00:00:00 20.59861 C 16.63 g/m*3 20.6 C 0.80938 km/h
Sensor: Nr:Datum:Temp:Abs-Feuchte:Windchill:Wind:
Aussen-T/F 151 27-08-2017 00:00:00 19.43507 C 14.96 g/m*3 19.44 C 0.06667 km/h
152 28-08-2017 00:00:00 19.49063 C 14.39 g/m*3 19.49 C 0.04444 km/h
153 29-08-2017 00:00:00 19.97986 C 14.91 g/m*3 19.98 C 0 km/h
154 30-08-2017 00:00:00 20.58819 C 15.93 g/m*3 20.59 C 0.45868 km/h
155 31-08-2017 00:00:00 17.03194 C 12.63 g/m*3 17.03 C 2.87639 km/h
156 01-09-2017 00:00:00 13.72639 C 10.48 g/m*3 13.73 C 0.7375 km/h
157 02-09-2017 00:00:00 14.2625 C 10.96 g/m*3 14.26 C 1.05694 km/h
158 03-09-2017 00:00:00 13.22257 C 10.09 g/m*3 13.22 C 0.08368 km/h
159 04-09-2017 00:00:00 13.75208 C 10.7 g/m*3 13.75 C 0 km/h
160 05-09-2017 00:00:00 17.85347 C 13.75 g/m*3 17.85 C 0.95694 km/h
161 06-09-2017 00:00:00 17.36389 C 11.62 g/m*3 17.36 C 6.73403 km/h
162 07-09-2017 00:00:00 15.38472 C 10.58 g/m*3 15.38 C 4.74201 km/h
163 08-09-2017 00:00:00 15.88958 C 10.93 g/m*3 15.89 C 6.42396 km/h
164 09-09-2017 00:00:00 14.59236 C 11.45 g/m*3 14.59 C 4.23333 km/h
165 10-09-2017 00:00:00 13.23924 C 10.22 g/m*3 13.24 C 3.54236 km/h
166 11-09-2017 00:00:00 14.41667 C 10.52 g/m*3 14.42 C 5.17014 km/h
167 12-09-2017 00:00:00 14.27674 C 10.36 g/m*3 14.28 C 7.5184 km/h
168 13-09-2017 00:00:00 14.43993 C 10.85 g/m*3 14.44 C 8.21215 km/h
169 14-09-2017 00:00:00 11.98194 C 9.8 g/m*3 11.98 C 8.05938 km/h
170 15-09-2017 00:00:00 12.37917 C 9.61 g/m*3 12.38 C 4.32257 km/h
171 16-09-2017 00:00:00 10.41007 C 8.52 g/m*3 10.41 C 2.40174 km/h
172 17-09-2017 00:00:00 9.97118 C 8.91 g/m*3 9.97 C 0.17222 km/h
173 18-09-2017 00:00:00 10.50764 C 8.82 g/m*3 10.51 C 3.9375 km/h
174 19-09-2017 00:00:00 11.95903 C 9.85 g/m*3 11.96 C 1.32465 km/h
175 20-09-2017 00:00:00 11.3184 C 9.46 g/m*3 11.32 C 2.12014 km/h
Sensor: Nr:Datum:Temp:Abs-Feuchte:Windchill:Wind:
Aussen-T/F 176 21-09-2017 00:00:00 10.7559 C 9.09 g/m*3 10.76 C 0 km/h
177 22-09-2017 00:00:00 11.39757 C 9.52 g/m*3 11.4 C 0.00556 km/h
178 23-09-2017 00:00:00 13.63785 C 10.56 g/m*3 13.64 C 0.44618 km/h
179 24-09-2017 00:00:00 12.54826 C 10.32 g/m*3 12.55 C 0.02222 km/h
180 25-09-2017 00:00:00 12.85729 C 10.45 g/m*3 12.86 C 0.28889 km/h
181 26-09-2017 00:00:00 13.54097 C 10.8 g/m*3 13.54 C 0.12222 km/h
182 27-09-2017 00:00:00 13.15069 C 10.78 g/m*3 13.15 C 0 km/h
183 28-09-2017 00:00:00 14.79861 C 11.89 g/m*3 14.8 C 0.01111 km/h
184 29-09-2017 00:00:00 17.64722 C 13.79 g/m*3 17.65 C 0.12778 km/h

Maximal/Minimal-Werte vom 23.02.2003 - 30.09.2020

Sensor Min Max Avg
Temp
(Aussen-T/F)
-16.4 °C
20-12-2009  01:30:01
40.4 °C
25-07-2019  16:20:00
11.32 °C

Die Daten stammen von einer Davis Vantage Pro 2 Wetter-Station und werden unter Linux mit der Software wview2wettercgi und aufbereitet. Alle Angaben erfolgen ohne Gewähr für ihre Vollständigkeit oder Richtigkeit.
Kontakt: Rainer Krienke krienke@uni-koblenz.de . Meine Webseiten an der Uni Koblenz oder privat.
Version: $Revision: 0.78 $